createdAt,value
2022-08-31T00:01:44.093Z,56.23
2022-08-31T00:04:13.284Z,56.41
2022-08-31T00:06:41.279Z,56.11
2022-08-31T00:09:09.346Z,56.30
2022-08-31T00:11:38.024Z,56.30
2022-08-31T00:14:09.896Z,56.09
2022-08-31T00:16:45.836Z,56.01
2022-08-31T00:19:13.961Z,56.75
2022-08-31T00:21:42.119Z,56.26
2022-08-31T00:24:14.266Z,56.67
2022-08-31T00:26:43.014Z,56.95
2022-08-31T00:29:11.147Z,56.92
2022-08-31T00:31:39.143Z,57.77
2022-08-31T00:34:09.056Z,57.94
2022-08-31T00:36:37.001Z,58.08
2022-08-31T00:39:07.327Z,57.96
2022-08-31T00:41:38.906Z,57.64
2022-08-31T00:44:08.904Z,58.12
2022-08-31T00:46:41.419Z,57.92
2022-08-31T00:49:14.877Z,57.64
2022-08-31T00:51:48.312Z,58.03
2022-08-31T00:54:19.133Z,57.54
2022-08-31T00:56:48.009Z,57.29
2022-08-31T00:59:18.855Z,57.51
2022-08-31T01:01:47.089Z,57.75
2022-08-31T01:04:17.160Z,57.67
2022-08-31T01:06:47.080Z,58.35
2022-08-31T01:09:15.576Z,57.72
2022-08-31T01:11:45.012Z,57.51
2022-08-31T01:14:13.192Z,57.47
2022-08-31T01:16:46.150Z,57.43
2022-08-31T01:19:25.682Z,57.70
2022-08-31T01:22:02.962Z,58.24
2022-08-31T01:24:35.225Z,57.40
2022-08-31T01:27:04.880Z,57.23
2022-08-31T01:29:33.345Z,57.12
2022-08-31T01:32:02.377Z,57.37
2022-08-31T01:34:30.709Z,57.48
2022-08-31T01:36:58.714Z,57.79
2022-08-31T01:39:27.275Z,57.47
2022-08-31T01:41:56.797Z,57.44
2022-08-31T01:44:27.660Z,57.57
2022-08-31T01:46:58.790Z,57.29
2022-08-31T01:49:27.914Z,57.61
2022-08-31T01:51:56.608Z,57.26
2022-08-31T01:54:26.657Z,57.33
2022-08-31T01:56:55.708Z,57.11
2022-08-31T01:59:26.225Z,57.00
2022-08-31T02:01:56.171Z,57.14
2022-08-31T02:04:27.116Z,56.76
2022-08-31T02:06:57.970Z,56.72
2022-08-31T02:09:26.455Z,56.67
2022-08-31T02:11:54.630Z,57.01
2022-08-31T02:14:23.001Z,57.16
2022-08-31T02:16:53.024Z,57.17
2022-08-31T02:19:21.212Z,57.17
2022-08-31T02:21:49.173Z,56.88
2022-08-31T02:24:18.149Z,56.76
2022-08-31T02:26:48.492Z,56.90
2022-08-31T02:29:19.818Z,56.87
2022-08-31T02:31:48.063Z,56.85
2022-08-31T02:34:18.134Z,56.70
2022-08-31T02:36:46.352Z,56.75
2022-08-31T02:39:15.058Z,56.56
2022-08-31T02:41:43.092Z,56.74
2022-08-31T02:44:11.186Z,56.80
2022-08-31T02:46:39.450Z,56.94
2022-08-31T02:49:09.980Z,57.15
2022-08-31T02:51:41.757Z,57.28
2022-08-31T02:54:10.722Z,57.29
2022-08-31T02:56:38.735Z,57.06
2022-08-31T02:59:08.301Z,57.09
2022-08-31T03:01:37.321Z,57.13
2022-08-31T03:04:05.664Z,57.03
2022-08-31T03:06:33.585Z,57.00
2022-08-31T03:09:03.792Z,57.39
2022-08-31T03:11:31.795Z,57.57
2022-08-31T03:14:00.913Z,57.48
2022-08-31T03:16:29.995Z,56.92
2022-08-31T03:18:58.456Z,56.87
2022-08-31T03:21:26.775Z,56.76
2022-08-31T03:23:55.863Z,56.52
2022-08-31T03:26:25.364Z,56.57
2022-08-31T03:28:55.849Z,56.46
2022-08-31T03:31:26.591Z,56.59
2022-08-31T03:33:55.313Z,56.86
2022-08-31T03:36:23.286Z,56.44
2022-08-31T03:38:51.506Z,56.25
2022-08-31T03:41:24.286Z,56.29
2022-08-31T03:43:54.516Z,57.08
2022-08-31T03:46:23.916Z,57.18
2022-08-31T03:48:52.072Z,56.59
2022-08-31T03:51:20.306Z,56.60
2022-08-31T03:53:48.774Z,56.55
2022-08-31T03:56:17.894Z,57.33
2022-08-31T03:58:46.134Z,58.61
2022-08-31T04:01:25.565Z,57.04
2022-08-31T04:03:55.251Z,57.28
2022-08-31T04:06:27.129Z,57.30
2022-08-31T04:09:03.111Z,57.23
2022-08-31T04:11:40.530Z,57.50
2022-08-31T04:14:18.366Z,57.14
2022-08-31T04:16:50.083Z,57.14
2022-08-31T04:19:20.115Z,57.02
2022-08-31T04:21:50.069Z,56.98
2022-08-31T04:24:18.174Z,56.88
2022-08-31T04:26:52.983Z,56.91
2022-08-31T04:29:21.244Z,57.28
2022-08-31T04:31:50.868Z,57.07
2022-08-31T04:34:19.188Z,57.06
2022-08-31T04:36:47.220Z,56.96
2022-08-31T04:39:16.252Z,56.95
2022-08-31T04:41:45.019Z,56.77
2022-08-31T04:44:17.765Z,56.82
2022-08-31T04:46:49.883Z,56.48
2022-08-31T04:49:17.962Z,56.64
2022-08-31T04:51:47.363Z,56.73
2022-08-31T04:54:15.327Z,56.98
2022-08-31T04:56:46.164Z,56.89
2022-08-31T04:59:17.944Z,57.09
2022-08-31T05:01:47.036Z,57.23
2022-08-31T05:04:17.972Z,57.33
2022-08-31T05:06:47.494Z,57.36
2022-08-31T05:09:19.039Z,57.18
2022-08-31T05:11:50.001Z,57.45
2022-08-31T05:14:18.812Z,57.34
2022-08-31T05:16:47.910Z,57.14
2022-08-31T05:19:15.911Z,57.25
2022-08-31T05:21:46.297Z,57.22
2022-08-31T05:24:16.238Z,57.45
2022-08-31T05:26:49.108Z,57.42
2022-08-31T05:29:19.456Z,57.32
2022-08-31T05:31:52.174Z,57.56
2022-08-31T05:34:22.190Z,57.15
2022-08-31T05:36:55.280Z,57.15
2022-08-31T05:39:23.996Z,57.46
2022-08-31T05:41:52.355Z,57.31
2022-08-31T05:44:21.295Z,57.43
2022-08-31T05:46:52.227Z,57.28
2022-08-31T05:49:27.916Z,57.06
2022-08-31T05:51:59.058Z,57.39
2022-08-31T05:54:27.522Z,57.25
2022-08-31T05:57:01.072Z,57.22
2022-08-31T05:59:31.943Z,57.33
2022-08-31T06:02:01.803Z,56.70
2022-08-31T06:04:30.252Z,56.92
2022-08-31T06:06:59.508Z,56.36
2022-08-31T06:09:27.989Z,56.42
2022-08-31T06:11:57.114Z,56.64
2022-08-31T06:14:25.054Z,56.59
2022-08-31T06:16:55.473Z,56.58
2022-08-31T06:19:24.057Z,56.83
2022-08-31T06:21:52.223Z,56.49
2022-08-31T06:24:22.611Z,56.47
2022-08-31T06:26:58.284Z,56.73
2022-08-31T06:29:28.025Z,56.33
2022-08-31T06:31:56.507Z,56.15
2022-08-31T06:34:26.824Z,56.11
2022-08-31T06:36:55.790Z,55.94
2022-08-31T06:39:29.227Z,55.88
2022-08-31T06:41:57.264Z,55.77
2022-08-31T06:44:26.290Z,55.61
2022-08-31T06:46:56.016Z,55.42
2022-08-31T06:49:24.402Z,55.54
2022-08-31T06:51:52.599Z,55.31
2022-08-31T06:54:29.357Z,55.23
2022-08-31T06:57:05.224Z,55.21
2022-08-31T06:59:34.271Z,54.99
2022-08-31T07:02:04.883Z,54.52
2022-08-31T07:04:35.027Z,54.25
2022-08-31T07:07:05.291Z,54.03
2022-08-31T07:09:33.834Z,53.99
2022-08-31T07:12:01.841Z,53.98
2022-08-31T07:14:31.454Z,53.79
2022-08-31T07:17:02.952Z,53.74
2022-08-31T07:19:32.387Z,53.58
2022-08-31T07:22:02.510Z,53.48
2022-08-31T07:24:35.147Z,53.32
2022-08-31T07:27:05.695Z,53.03
2022-08-31T07:29:40.453Z,52.95
2022-08-31T07:32:12.736Z,52.64
2022-08-31T07:34:41.604Z,52.63
2022-08-31T07:37:29.223Z,52.79
2022-08-31T07:40:15.210Z,52.53
2022-08-31T07:42:46.811Z,52.37
2022-08-31T07:45:22.482Z,52.06
2022-08-31T07:47:52.286Z,51.75
2022-08-31T07:50:22.704Z,51.74
2022-08-31T07:52:54.889Z,51.23
2022-08-31T07:55:30.127Z,51.45
2022-08-31T07:57:59.714Z,51.35
2022-08-31T08:00:33.066Z,51.23
2022-08-31T08:03:07.757Z,50.60
2022-08-31T08:05:38.849Z,50.81
2022-08-31T08:08:13.613Z,50.54
2022-08-31T08:10:51.881Z,50.17
2022-08-31T08:13:23.184Z,49.94
2022-08-31T08:15:53.091Z,49.63
2022-08-31T08:18:21.499Z,49.41
2022-08-31T08:20:52.449Z,49.40
2022-08-31T08:23:27.984Z,49.10
2022-08-31T08:26:01.726Z,48.75
2022-08-31T08:28:40.171Z,48.66
2022-08-31T08:31:15.440Z,48.32
2022-08-31T08:33:45.086Z,46.51
2022-08-31T08:36:18.256Z,48.08
2022-08-31T08:38:48.802Z,48.20
2022-08-31T08:41:20.085Z,48.26
2022-08-31T08:43:52.754Z,48.12
2022-08-31T08:46:37.630Z,47.72
2022-08-31T08:49:16.344Z,44.54
2022-08-31T08:51:48.490Z,45.96
2022-08-31T08:54:27.606Z,47.09
2022-08-31T08:56:57.932Z,44.20
2022-08-31T08:59:28.591Z,46.90
2022-08-31T09:02:06.415Z,46.28
2022-08-31T09:04:50.852Z,46.73
2022-08-31T09:07:42.394Z,45.28
2022-08-31T09:10:19.153Z,44.52
2022-08-31T09:12:58.147Z,45.16
2022-08-31T09:15:40.883Z,45.40
2022-08-31T09:18:38.720Z,44.39
2022-08-31T09:21:22.039Z,43.84
2022-08-31T09:24:01.536Z,45.32
2022-08-31T09:26:35.695Z,42.78
2022-08-31T09:29:05.630Z,45.71
2022-08-31T09:31:38.095Z,45.15
2022-08-31T09:34:12.580Z,44.65
2022-08-31T09:36:41.821Z,43.13
2022-08-31T09:39:22.003Z,44.21
2022-08-31T09:41:51.053Z,39.65
2022-08-31T09:44:33.957Z,44.30
2022-08-31T09:47:05.424Z,40.40
2022-08-31T09:49:37.708Z,43.11
2022-08-31T09:52:21.251Z,42.04
2022-08-31T09:55:14.468Z,38.25
2022-08-31T09:57:54.328Z,38.74
2022-08-31T10:00:32.456Z,43.36
2022-08-31T10:03:09.679Z,38.03
2022-08-31T10:05:42.540Z,40.64
2022-08-31T10:08:28.844Z,40.76
2022-08-31T10:10:59.461Z,40.37
2022-08-31T10:13:37.061Z,41.69
2022-08-31T10:16:14.611Z,41.01
2022-08-31T10:18:55.482Z,40.26
2022-08-31T10:21:35.315Z,41.42
2022-08-31T10:24:20.494Z,39.08
2022-08-31T10:26:53.983Z,38.54
2022-08-31T10:29:32.544Z,41.34
2022-08-31T10:32:06.007Z,39.47
2022-08-31T10:35:07.059Z,41.32
2022-08-31T10:37:44.660Z,41.55
2022-08-31T10:40:18.230Z,39.36
2022-08-31T10:42:57.592Z,40.15
2022-08-31T10:45:29.848Z,39.54
2022-08-31T10:47:58.616Z,41.11
2022-08-31T10:50:34.062Z,41.28
2022-08-31T10:53:15.495Z,40.34
2022-08-31T10:55:52.238Z,37.99
2022-08-31T10:58:31.178Z,39.14
2022-08-31T11:01:09.108Z,38.33
2022-08-31T11:03:51.816Z,38.54
2022-08-31T11:06:28.814Z,37.02
2022-08-31T11:09:06.208Z,37.29
2022-08-31T11:11:42.411Z,38.71
2022-08-31T11:14:29.613Z,39.60
2022-08-31T11:17:13.669Z,39.31
2022-08-31T11:20:00.055Z,39.01
2022-08-31T11:22:47.076Z,38.30
2022-08-31T11:25:33.182Z,38.30
2022-08-31T11:28:07.056Z,36.89
2022-08-31T11:30:41.887Z,38.79
2022-08-31T11:33:20.320Z,39.46
2022-08-31T11:36:05.474Z,39.56
2022-08-31T11:39:15.147Z,36.47
2022-08-31T11:41:46.725Z,39.21
2022-08-31T11:44:52.146Z,37.80
2022-08-31T11:47:35.609Z,34.83
2022-08-31T11:50:10.842Z,32.85
2022-08-31T11:52:43.053Z,38.08
2022-08-31T11:55:25.688Z,37.34
2022-08-31T11:58:21.245Z,32.38
2022-08-31T12:00:54.048Z,33.17
2022-08-31T12:03:44.496Z,37.92
2022-08-31T12:06:52.897Z,34.11
2022-08-31T12:09:42.899Z,35.09
2022-08-31T12:12:21.732Z,34.62
2022-08-31T12:14:57.960Z,37.69
2022-08-31T12:17:30.866Z,36.13
2022-08-31T12:20:07.199Z,38.65
2022-08-31T12:23:29.833Z,37.55
2022-08-31T12:26:12.588Z,34.46
2022-08-31T12:28:55.873Z,35.47
2022-08-31T12:31:24.358Z,36.58
2022-08-31T12:33:58.994Z,38.63
2022-08-31T12:36:29.959Z,37.48
2022-08-31T12:39:10.696Z,38.55
2022-08-31T12:41:43.771Z,35.69
2022-08-31T12:44:13.978Z,36.64
2022-08-31T12:47:02.443Z,38.36
2022-08-31T12:49:57.837Z,35.18
2022-08-31T12:52:41.751Z,35.54
2022-08-31T12:55:28.230Z,36.86
2022-08-31T12:58:21.971Z,36.38
2022-08-31T13:00:50.955Z,36.46
2022-08-31T13:03:22.300Z,39.23
2022-08-31T13:06:08.161Z,38.79
2022-08-31T13:08:40.579Z,35.75
2022-08-31T13:11:22.768Z,38.20
2022-08-31T13:13:54.439Z,36.90
2022-08-31T13:16:22.872Z,38.16
2022-08-31T13:19:02.910Z,37.53
2022-08-31T13:21:31.469Z,35.37
2022-08-31T13:24:07.301Z,36.97
2022-08-31T13:26:38.032Z,34.31
2022-08-31T13:29:10.097Z,36.93
2022-08-31T13:31:49.729Z,36.96
2022-08-31T13:34:19.111Z,35.48
2022-08-31T13:36:52.506Z,36.39
2022-08-31T13:39:26.679Z,37.03
2022-08-31T13:41:58.519Z,36.46
2022-08-31T13:44:33.683Z,36.35
2022-08-31T13:47:03.812Z,36.75
2022-08-31T13:49:36.273Z,36.74
2022-08-31T13:52:07.571Z,36.00
2022-08-31T13:54:37.055Z,36.50
2022-08-31T13:57:28.383Z,36.16
2022-08-31T14:00:29.282Z,31.92
2022-08-31T14:03:01.712Z,32.58
2022-08-31T14:05:33.371Z,34.96
2022-08-31T14:08:03.993Z,34.23
2022-08-31T14:10:36.190Z,34.78
2022-08-31T14:13:14.172Z,34.67
2022-08-31T14:15:52.095Z,35.44
2022-08-31T14:18:25.995Z,34.19
2022-08-31T14:21:21.534Z,34.65
2022-08-31T14:23:53.087Z,31.10
2022-08-31T14:26:22.825Z,35.18
2022-08-31T14:28:53.548Z,35.10
2022-08-31T14:31:26.912Z,35.13
2022-08-31T14:34:08.145Z,33.81
2022-08-31T14:36:52.882Z,31.77
2022-08-31T14:39:24.287Z,34.83
2022-08-31T14:41:54.618Z,34.83
2022-08-31T14:44:26.722Z,34.94
2022-08-31T14:46:56.211Z,34.56
2022-08-31T14:49:25.046Z,34.53
2022-08-31T14:51:53.288Z,34.97
2022-08-31T14:54:21.241Z,34.78
2022-08-31T14:56:51.895Z,34.48
2022-08-31T14:59:21.781Z,34.67
2022-08-31T15:01:50.964Z,34.89
2022-08-31T15:04:21.848Z,34.56
2022-08-31T15:06:54.850Z,34.06
2022-08-31T15:09:23.232Z,34.64
2022-08-31T15:11:51.403Z,34.83
2022-08-31T15:14:19.395Z,34.78
2022-08-31T15:16:50.794Z,34.68
2022-08-31T15:19:23.039Z,34.73
2022-08-31T15:21:58.584Z,34.42
2022-08-31T15:24:30.817Z,34.58
2022-08-31T15:26:59.615Z,34.70
2022-08-31T15:29:29.038Z,34.65
2022-08-31T15:31:58.970Z,34.67
2022-08-31T15:34:31.056Z,34.69
2022-08-31T15:37:02.195Z,33.80
2022-08-31T15:39:34.975Z,34.06
2022-08-31T15:42:09.303Z,34.51
2022-08-31T15:44:37.775Z,33.52
2022-08-31T15:47:24.882Z,34.51
2022-08-31T15:49:56.132Z,34.37
2022-08-31T15:52:27.785Z,33.71
2022-08-31T15:54:57.114Z,34.16
2022-08-31T15:57:25.343Z,34.28
2022-08-31T15:59:53.314Z,33.98
2022-08-31T16:02:21.675Z,34.22
2022-08-31T16:04:51.379Z,33.67
2022-08-31T16:07:23.113Z,33.69
2022-08-31T16:09:51.332Z,34.33
2022-08-31T16:12:22.377Z,33.71
2022-08-31T16:14:51.765Z,34.26
2022-08-31T16:17:20.140Z,34.49
2022-08-31T16:19:48.672Z,34.51
2022-08-31T16:22:18.398Z,34.46
2022-08-31T16:24:49.005Z,33.88
2022-08-31T16:27:19.026Z,34.16
2022-08-31T16:29:50.716Z,34.66
2022-08-31T16:32:18.915Z,34.13
2022-08-31T16:34:46.893Z,34.72
2022-08-31T16:37:15.146Z,34.07
2022-08-31T16:39:46.962Z,34.29
2022-08-31T16:42:17.586Z,34.38
2022-08-31T16:44:47.882Z,33.77
2022-08-31T16:47:18.652Z,34.53
2022-08-31T16:49:45.787Z,34.43
2022-08-31T16:52:18.163Z,34.70
2022-08-31T16:54:49.117Z,34.44
2022-08-31T16:57:20.749Z,34.63
2022-08-31T16:59:50.395Z,34.44
2022-08-31T17:02:20.003Z,34.83
2022-08-31T17:04:52.635Z,34.67
2022-08-31T17:07:22.562Z,34.92
2022-08-31T17:09:50.994Z,34.96
2022-08-31T17:12:26.210Z,35.15
2022-08-31T17:14:55.951Z,34.94
2022-08-31T17:17:26.459Z,35.24
2022-08-31T17:19:56.401Z,35.32
2022-08-31T17:22:31.692Z,35.28
2022-08-31T17:25:03.102Z,35.43
2022-08-31T17:27:34.301Z,35.52
2022-08-31T17:30:07.198Z,35.60
2022-08-31T17:32:45.237Z,35.75
2022-08-31T17:35:18.231Z,35.87
2022-08-31T17:37:48.193Z,35.98
2022-08-31T17:40:16.787Z,36.10
2022-08-31T17:42:48.571Z,36.13
2022-08-31T17:45:17.578Z,36.26
2022-08-31T17:47:45.723Z,36.31
2022-08-31T17:50:17.205Z,36.46
2022-08-31T17:52:47.336Z,36.46
2022-08-31T17:55:15.613Z,36.48
2022-08-31T17:57:44.410Z,36.53
2022-08-31T18:00:15.961Z,36.62
2022-08-31T18:02:44.726Z,36.77
2022-08-31T18:05:16.193Z,36.99
2022-08-31T18:07:44.486Z,37.00
2022-08-31T18:10:13.089Z,37.16
2022-08-31T18:12:42.201Z,37.25
2022-08-31T18:15:14.369Z,37.40
2022-08-31T18:17:45.409Z,37.58
2022-08-31T18:20:14.139Z,37.71
2022-08-31T18:22:42.452Z,37.91
2022-08-31T18:25:11.844Z,38.00
2022-08-31T18:27:40.551Z,38.23
2022-08-31T18:30:15.408Z,38.38
2022-08-31T18:32:47.434Z,38.45
2022-08-31T18:35:17.691Z,38.59
2022-08-31T18:37:46.023Z,38.70
2022-08-31T18:40:32.607Z,38.75
2022-08-31T18:43:18.454Z,38.91
2022-08-31T18:45:50.236Z,39.05
2022-08-31T18:48:25.541Z,39.21
2022-08-31T18:50:59.816Z,39.38
2022-08-31T18:53:30.420Z,39.45
2022-08-31T18:56:06.028Z,39.56
2022-08-31T18:58:35.733Z,39.73
2022-08-31T19:01:04.448Z,39.70
2022-08-31T19:03:34.364Z,39.83
2022-08-31T19:06:02.956Z,39.92
2022-08-31T19:08:34.560Z,40.00
2022-08-31T19:11:03.549Z,40.04
2022-08-31T19:13:32.605Z,40.08
2022-08-31T19:16:14.817Z,40.18
2022-08-31T19:18:46.283Z,40.23
2022-08-31T19:21:17.278Z,40.55
2022-08-31T19:23:46.025Z,40.53
2022-08-31T19:26:20.468Z,40.58
2022-08-31T19:28:52.032Z,41.23
2022-08-31T19:31:21.565Z,40.91
2022-08-31T19:33:56.473Z,41.03
2022-08-31T19:36:27.747Z,41.30
2022-08-31T19:38:57.189Z,41.33
2022-08-31T19:41:26.931Z,41.39
2022-08-31T19:44:07.257Z,41.42
2022-08-31T19:46:37.729Z,41.39
2022-08-31T19:49:11.250Z,41.44
2022-08-31T19:51:41.802Z,41.74
2022-08-31T19:54:12.404Z,41.73
2022-08-31T19:56:44.071Z,41.73
2022-08-31T19:59:18.253Z,41.89
2022-08-31T20:01:47.990Z,41.77
2022-08-31T20:04:19.075Z,41.90
2022-08-31T20:06:49.130Z,42.05
2022-08-31T20:09:22.799Z,41.89
2022-08-31T20:11:51.946Z,41.89
2022-08-31T20:14:22.023Z,41.92
2022-08-31T20:16:51.367Z,42.31
2022-08-31T20:19:24.832Z,42.59
2022-08-31T20:21:55.017Z,43.09
2022-08-31T20:24:26.783Z,42.57
2022-08-31T20:27:00.906Z,42.63
2022-08-31T20:29:30.683Z,42.93
2022-08-31T20:32:01.726Z,42.91
2022-08-31T20:34:31.150Z,43.00
2022-08-31T20:37:01.085Z,43.08
2022-08-31T20:39:31.984Z,43.03
2022-08-31T20:42:00.634Z,43.23
2022-08-31T20:44:31.040Z,43.19
2022-08-31T20:47:19.339Z,43.35
2022-08-31T20:49:54.898Z,43.34
2022-08-31T20:52:25.397Z,44.01
2022-08-31T20:55:01.417Z,43.34
2022-08-31T20:57:32.831Z,43.36
2022-08-31T21:00:02.849Z,43.17
2022-08-31T21:02:33.288Z,43.29
2022-08-31T21:05:33.967Z,43.39
2022-08-31T21:07:52.290Z,43.47
2022-08-31T21:10:29.583Z,43.62
2022-08-31T21:13:05.158Z,43.60
2022-08-31T21:15:33.242Z,43.72
2022-08-31T21:18:01.519Z,44.20
2022-08-31T21:20:32.356Z,44.12
2022-08-31T21:23:00.355Z,44.38
2022-08-31T21:25:29.596Z,44.20
2022-08-31T21:27:57.863Z,44.24
2022-08-31T21:30:25.907Z,44.25
2022-08-31T21:32:53.804Z,44.34
2022-08-31T21:35:22.086Z,44.42
2022-08-31T21:37:51.370Z,44.32
2022-08-31T21:40:19.307Z,44.24
2022-08-31T21:42:49.436Z,44.36
2022-08-31T21:45:17.652Z,44.35
2022-08-31T21:47:45.615Z,44.31
2022-08-31T21:50:14.421Z,44.67
2022-08-31T21:52:42.392Z,44.73
2022-08-31T21:55:13.614Z,45.02
2022-08-31T21:57:43.284Z,44.88
2022-08-31T22:00:22.051Z,44.78
2022-08-31T22:02:50.947Z,45.56
2022-08-31T22:05:19.075Z,44.78
2022-08-31T22:07:47.062Z,44.79
2022-08-31T22:10:16.902Z,44.83
2022-08-31T22:12:44.815Z,45.07
2022-08-31T22:15:16.716Z,45.07
2022-08-31T22:18:05.943Z,45.02
2022-08-31T22:20:33.738Z,45.31
2022-08-31T22:23:03.057Z,45.39
2022-08-31T22:25:34.589Z,45.43
2022-08-31T22:28:06.000Z,45.45
2022-08-31T22:30:37.073Z,45.67
2022-08-31T22:33:05.742Z,45.81
2022-08-31T22:35:39.834Z,45.90
2022-08-31T22:38:09.103Z,47.64
2022-08-31T22:40:39.544Z,46.41
2022-08-31T22:43:09.606Z,47.68
2022-08-31T22:45:47.618Z,46.56
2022-08-31T22:48:16.940Z,47.08
2022-08-31T22:50:44.910Z,46.77
2022-08-31T22:53:12.949Z,46.62
2022-08-31T22:55:43.083Z,46.75
2022-08-31T22:58:12.432Z,46.61
2022-08-31T23:00:42.647Z,46.83
2022-08-31T23:03:14.814Z,47.14
2022-08-31T23:05:43.696Z,46.85
2022-08-31T23:08:13.795Z,47.10
2022-08-31T23:10:44.072Z,47.14
2022-08-31T23:13:12.329Z,47.18
2022-08-31T23:15:41.244Z,47.12
2022-08-31T23:18:09.947Z,47.14
2022-08-31T23:20:40.858Z,47.33
2022-08-31T23:23:08.751Z,47.41
2022-08-31T23:25:37.118Z,47.59
2022-08-31T23:28:06.643Z,47.70
2022-08-31T23:30:35.386Z,47.87
2022-08-31T23:33:03.298Z,47.89
2022-08-31T23:35:32.844Z,47.96
2022-08-31T23:38:01.687Z,48.44
2022-08-31T23:40:31.962Z,48.41
2022-08-31T23:43:02.237Z,48.66
2022-08-31T23:45:32.475Z,48.66
2022-08-31T23:48:01.441Z,49.04
2022-08-31T23:50:29.372Z,48.76
2022-08-31T23:52:57.401Z,48.79
2022-08-31T23:55:31.250Z,49.25
2022-08-31T23:57:59.325Z,50.29
